Time;durP1;ratioP1;P1;durP2;ratioP2;P2;SDS_P1;SDS_P2;PMS_P1;PMS_P2;Temp;Humidity;BMP_temperature;BMP_pressure;BME280_temperature;BME280_humidity;BME280_pressure;Samples;Min_cycle;Max_cycle;Signal;HPM_P1;HPM_P2
2022/08/14 00:00:35;;;;;;;16.95;14.60;;;15.70;64.40;;;;;;5127195;27;20278;-86
2022/08/14 00:03:03;;;;;;;37.25;33.30;;;16.10;64.30;;;;;;5143373;27;20667;-86
2022/08/14 00:05:30;;;;;;;28.92;25.80;;;16.50;62.90;;;;;;5124991;27;20196;-86
2022/08/14 00:08:00;;;;;;;9.60;8.10;;;16.70;59.50;;;;;;5127861;27;20219;-86
2022/08/14 00:10:55;;;;;;;10.40;8.73;;;16.90;55.60;;;;;;5133318;27;20219;-86
2022/08/14 00:13:27;;;;;;;7.20;5.85;;;17.00;55.30;;;;;;5130685;27;20194;-86
2022/08/14 00:15:55;;;;;;;7.88;7.15;;;16.80;55.70;;;;;;5120837;27;20666;-86
2022/08/14 00:18:29;;;;;;;8.43;6.60;;;16.70;56.30;;;;;;5139609;27;20649;-86
2022/08/14 00:20:59;;;;;;;11.05;9.90;;;16.80;56.50;;;;;;5148278;27;20218;-86
2022/08/14 00:23:26;;;;;;;10.85;9.75;;;16.80;55.30;;;;;;5147322;27;20203;-86
2022/08/14 00:25:56;;;;;;;6.55;5.95;;;16.80;55.50;;;;;;5146841;27;20576;-86
2022/08/14 00:28:26;;;;;;;27.40;20.27;;;16.50;56.40;;;;;;5149046;27;20203;-86
2022/08/14 00:30:56;;;;;;;31.13;27.85;;;16.50;58.00;;;;;;5145927;27;20207;-86
2022/08/14 00:33:24;;;;;;;24.75;22.20;;;16.50;58.00;;;;;;5148910;27;20657;-86
2022/08/14 00:35:53;;;;;;;14.52;12.98;;;16.70;57.10;;;;;;5146894;27;20199;-86
2022/08/14 00:38:21;;;;;;;17.45;15.65;;;16.80;56.20;;;;;;5151806;27;20222;-86
2022/08/14 00:40:49;;;;;;;11.50;9.98;;;16.90;56.30;;;;;;5146225;27;20195;-86
2022/08/14 00:43:16;;;;;;;9.30;8.23;;;17.20;54.20;;;;;;5124589;27;20203;-86
2022/08/14 00:45:44;;;;;;;5.18;4.78;;;17.20;53.40;;;;;;5123033;27;20188;-86
2022/08/14 00:48:11;;;;;;;6.22;5.63;;;17.20;53.40;;;;;;5130334;27;20207;-86
2022/08/14 00:50:38;;;;;;;7.13;5.90;;;16.80;55.90;;;;;;5130223;27;20192;-86
2022/08/14 00:53:08;;;;;;;6.60;5.38;;;16.80;56.40;;;;;;5130828;27;20195;-86
2022/08/14 00:55:40;;;;;;;7.40;4.68;;;16.90;55.80;;;;;;5121199;27;20650;-86
2022/08/14 01:00:52;;;;;;;5.32;4.82;;;16.80;56.30;;;;;;5135640;27;20657;-86
2022/08/14 01:03:19;;;;;;;5.25;4.75;;;16.90;56.90;;;;;;5134617;27;20294;-85
2022/08/14 01:05:50;;;;;;;4.65;3.95;;;16.90;55.60;;;;;;5149136;27;20208;-86
2022/08/14 01:08:21;;;;;;;5.95;4.25;;;16.80;55.80;;;;;;5144285;27;20211;-86
2022/08/14 01:10:52;;;;;;;6.57;5.10;;;16.50;58.20;;;;;;5130620;27;20194;-86
2022/08/14 01:13:21;;;;;;;4.55;4.13;;;16.50;59.20;;;;;;5144426;27;20207;-86
2022/08/14 01:15:50;;;;;;;5.65;4.25;;;16.80;58.10;;;;;;5148384;27;20198;-86
2022/08/14 01:21:10;;;;;;;6.32;4.22;;;16.70;56.90;;;;;;5128313;27;20205;-86
2022/08/14 01:23:40;;;;;;;12.98;11.65;;;16.80;56.10;;;;;;5145507;27;20210;-86
2022/08/14 01:26:08;;;;;;;4.97;4.47;;;16.70;56.70;;;;;;5128568;27;20199;-86
2022/08/14 01:28:40;;;;;;;5.05;4.63;;;16.30;58.10;;;;;;5147980;27;20199;-86
2022/08/14 01:31:08;;;;;;;5.43;4.80;;;16.00;61.00;;;;;;5138767;27;20262;-86
2022/08/14 01:33:39;;;;;;;5.13;4.68;;;15.70;64.80;;;;;;5127998;27;20206;-86
2022/08/14 01:36:08;;;;;;;4.70;4.30;;;15.50;65.50;;;;;;5132996;27;20224;-86
2022/08/14 01:38:42;;;;;;;7.32;5.63;;;15.40;67.30;;;;;;5122229;27;20260;-86
2022/08/14 01:41:12;;;;;;;5.60;5.03;;;15.20;69.90;;;;;;5121279;27;20191;-86
2022/08/14 01:43:48;;;;;;;7.22;6.43;;;15.20;70.70;;;;;;5122055;27;20665;-86
2022/08/14 01:46:17;;;;;;;5.65;4.57;;;15.10;72.80;;;;;;5127784;28;20228;-86
2022/08/14 01:48:45;;;;;;;5.60;5.00;;;15.00;73.60;;;;;;5133259;27;20195;-86
2022/08/14 01:51:13;;;;;;;5.30;4.80;;;14.90;75.60;;;;;;5132689;27;20203;-86
2022/08/14 01:53:46;;;;;;;4.55;4.15;;;14.80;77.20;;;;;;5133520;27;20198;-86
2022/08/14 01:56:17;;;;;;;8.13;4.95;;;14.80;77.10;;;;;;5130707;27;20230;-86
2022/08/14 01:58:47;;;;;;;5.03;4.50;;;14.70;77.10;;;;;;5127964;27;20216;-86
2022/08/14 02:01:14;;;;;;;5.43;4.90;;;14.60;77.00;;;;;;5119439;27;20203;-86
2022/08/14 02:03:42;;;;;;;4.80;4.28;;;14.60;77.00;;;;;;5114342;27;20212;-86
2022/08/14 02:06:10;;;;;;;4.93;4.45;;;14.60;77.00;;;;;;5114209;27;20206;-86
2022/08/14 02:08:38;;;;;;;5.47;4.25;;;14.60;77.00;;;;;;5131099;27;20741;-86
2022/08/14 02:11:17;;;;;;;4.80;4.15;;;14.50;77.40;;;;;;5121612;27;20551;-86
2022/08/14 02:13:46;;;;;;;5.70;4.65;;;14.40;77.90;;;;;;5144696;27;20206;-86
2022/08/14 02:16:15;;;;;;;4.63;3.97;;;14.30;79.30;;;;;;5143015;27;20230;-86
2022/08/14 02:18:42;;;;;;;5.07;4.57;;;14.20;79.30;;;;;;5141795;27;20586;-86
2022/08/14 02:21:11;;;;;;;4.47;4.07;;;14.40;77.40;;;;;;5136851;27;20203;-86
2022/08/14 02:23:39;;;;;;;5.15;4.25;;;14.50;77.00;;;;;;5128716;27;20286;-85
2022/08/14 02:26:17;;;;;;;4.57;3.85;;;14.60;77.90;;;;;;5137534;27;20315;-85
2022/08/14 02:28:45;;;;;;;5.22;4.60;;;14.60;77.00;;;;;;5147174;27;20207;-85
2022/08/14 02:31:12;;;;;;;4.40;4.00;;;14.40;76.80;;;;;;5155597;27;20272;-86
2022/08/14 02:33:40;;;;;;;6.05;4.40;;;14.30;76.80;;;;;;5138770;27;20564;-86
2022/08/14 02:36:08;;;;;;;5.50;4.43;;;14.30;77.80;;;;;;5140391;27;20207;-86
2022/08/14 02:38:37;;;;;;;4.57;4.18;;;14.20;77.60;;;;;;5141466;27;20226;-86
2022/08/14 02:41:05;;;;;;;4.43;4.03;;;14.30;77.90;;;;;;5135855;27;20202;-86
2022/08/14 02:43:33;;;;;;;5.05;4.57;;;14.30;77.30;;;;;;5148335;27;20226;-86
2022/08/14 02:46:02;;;;;;;5.60;4.53;;;14.20;77.80;;;;;;5150390;27;20194;-85
2022/08/14 02:48:31;;;;;;;4.68;4.28;;;14.10;78.50;;;;;;5159001;27;20231;-85
2022/08/14 02:50:57;;;;;;;5.75;4.50;;;14.00;79.90;;;;;;5154389;27;20722;-85
2022/08/14 02:53:24;;;;;;;4.60;4.20;;;14.10;79.80;;;;;;5152539;27;20198;-85
2022/08/14 02:55:52;;;;;;;4.70;4.10;;;14.10;79.10;;;;;;5146329;27;20195;-85
2022/08/14 02:58:22;;;;;;;4.45;4.05;;;14.10;79.20;;;;;;5135566;27;20223;-85
2022/08/14 03:00:51;;;;;;;4.70;4.20;;;14.10;80.00;;;;;;5136222;27;20263;-85
2022/08/14 03:03:22;;;;;;;4.55;4.15;;;14.00;79.50;;;;;;5154412;27;20206;-85
2022/08/14 03:05:52;;;;;;;5.20;4.70;;;13.90;79.70;;;;;;5149903;27;20209;-86
2022/08/14 03:08:19;;;;;;;5.00;4.40;;;13.90;80.30;;;;;;5124969;27;20536;-86
2022/08/14 03:10:47;;;;;;;4.88;4.10;;;13.90;80.40;;;;;;5135143;27;20199;-86
2022/08/14 03:13:14;;;;;;;5.75;4.45;;;14.00;79.90;;;;;;5122709;27;20203;-86
2022/08/14 03:15:43;;;;;;;5.53;4.57;;;14.00;80.20;;;;;;5124623;27;20196;-86
2022/08/14 03:18:12;;;;;;;6.32;4.28;;;14.20;79.30;;;;;;5134974;27;20580;-86
2022/08/14 03:20:40;;;;;;;4.50;4.05;;;14.20;78.70;;;;;;5135194;27;20210;-86
2022/08/14 03:23:07;;;;;;;5.32;4.28;;;14.30;79.00;;;;;;5134957;27;20661;-86
2022/08/14 03:25:34;;;;;;;5.32;4.53;;;14.20;79.10;;;;;;5135848;27;20278;-86
2022/08/14 03:28:05;;;;;;;4.18;3.78;;;14.10;78.60;;;;;;5135138;27;20567;-86
2022/08/14 03:30:33;;;;;;;4.70;4.30;;;14.20;78.80;;;;;;5133988;27;20236;-86
2022/08/14 03:33:00;;;;;;;5.20;4.00;;;14.30;78.20;;;;;;5135449;27;20268;-86
2022/08/14 03:35:35;;;;;;;4.88;4.38;;;14.30;76.90;;;;;;5115913;27;20196;-86
2022/08/14 03:38:07;;;;;;;4.20;3.90;;;14.30;76.80;;;;;;5132074;27;20219;-86
2022/08/14 03:40:37;;;;;;;4.80;4.30;;;14.20;77.40;;;;;;5125725;27;20202;-85
2022/08/14 03:43:10;;;;;;;4.93;4.38;;;13.90;79.30;;;;;;5140846;27;20211;-85
2022/08/14 03:45:39;;;;;;;4.50;4.10;;;13.80;79.50;;;;;;5128255;27;20566;-85
2022/08/14 03:48:13;;;;;;;6.70;4.28;;;13.70;80.50;;;;;;5146425;27;20214;-85
2022/08/14 03:50:43;;;;;;;7.32;4.10;;;13.70;81.60;;;;;;5125253;27;20657;-86
2022/08/14 03:53:10;;;;;;;6.80;4.43;;;13.70;81.70;;;;;;5137931;27;20251;-86
2022/08/14 03:55:38;;;;;;;5.07;4.32;;;13.70;82.40;;;;;;5137594;27;20203;-86
2022/08/14 03:58:10;;;;;;;4.07;3.78;;;13.80;81.30;;;;;;5144050;27;20221;-86
2022/08/14 04:00:39;;;;;;;4.55;4.15;;;13.80;81.10;;;;;;5136614;27;20199;-86
2022/08/14 04:03:08;;;;;;;4.85;4.30;;;13.70;81.80;;;;;;5124251;27;20294;-86
2022/08/14 04:05:37;;;;;;;5.18;4.53;;;13.60;82.00;;;;;;5124751;27;20669;-86
2022/08/14 04:08:11;;;;;;;4.55;4.13;;;13.50;83.10;;;;;;5124234;27;20202;-86
2022/08/14 04:10:38;;;;;;;4.93;4.10;;;13.40;83.90;;;;;;5124933;27;20199;-86
2022/08/14 04:13:05;;;;;;;4.80;4.32;;;13.40;84.50;;;;;;5129751;27;20203;-86
2022/08/14 04:15:32;;;;;;;4.80;4.40;;;13.50;83.10;;;;;;5126306;27;20277;-86
2022/08/14 04:18:05;;;;;;;6.63;4.63;;;13.60;81.80;;;;;;5127431;27;20219;-86
2022/08/14 04:20:32;;;;;;;4.78;4.05;;;13.60;81.00;;;;;;5138846;27;20219;-86
2022/08/14 04:22:59;;;;;;;4.72;4.30;;;13.70;80.80;;;;;;5131200;27;20199;-86
2022/08/14 04:25:27;;;;;;;4.45;4.05;;;13.70;80.80;;;;;;5134612;27;20294;-86
2022/08/14 04:27:54;;;;;;;4.70;4.28;;;13.70;80.70;;;;;;5127560;27;20187;-86
2022/08/14 04:30:21;;;;;;;4.22;3.83;;;13.60;80.70;;;;;;5133645;27;20196;-86
2022/08/14 04:32:48;;;;;;;4.63;4.20;;;13.60;80.30;;;;;;5124775;27;20361;-86
2022/08/14 04:35:16;;;;;;;4.50;4.10;;;13.80;80.10;;;;;;5135388;27;20286;-86
2022/08/14 04:45:58;;;;;;;4.85;4.35;;;13.80;78.70;;;;;;5142578;27;20343;-85
2022/08/14 04:48:27;;;;;;;4.00;3.60;;;13.70;78.70;;;;;;5129620;27;20298;-87
2022/08/14 04:50:55;;;;;;;4.35;3.85;;;13.70;79.30;;;;;;5144340;27;20263;-86
2022/08/14 04:53:24;;;;;;;3.90;3.60;;;13.70;78.90;;;;;;5136017;27;20211;-86
2022/08/14 04:55:52;;;;;;;5.18;3.55;;;13.80;78.90;;;;;;5127665;27;20677;-85
2022/08/14 04:58:21;;;;;;;4.60;3.88;;;13.80;76.40;;;;;;5123091;27;20230;-86
2022/08/14 05:00:49;;;;;;;4.93;4.43;;;13.90;76.50;;;;;;5124734;27;20598;-86
2022/08/14 05:03:19;;;;;;;5.57;4.10;;;13.90;76.90;;;;;;5132115;27;20262;-86
2022/08/14 05:05:46;;;;;;;4.20;3.80;;;14.00;76.60;;;;;;5145002;27;20191;-86
2022/08/14 05:08:13;;;;;;;4.47;4.05;;;14.10;76.60;;;;;;5138367;27;20654;-86
2022/08/14 05:10:42;;;;;;;4.32;3.92;;;14.10;78.60;;;;;;5122818;27;20207;-86
2022/08/14 05:13:11;;;;;;;5.57;3.78;;;14.10;76.60;;;;;;5120156;27;20207;-86
2022/08/14 05:15:40;;;;;;;4.55;3.83;;;14.10;76.60;;;;;;5131816;27;20187;-86
2022/08/14 05:18:12;;;;;;;3.95;3.65;;;14.30;77.70;;;;;;5129582;27;20282;-86
2022/08/14 05:20:41;;;;;;;4.18;3.78;;;14.40;76.80;;;;;;5123058;27;20203;-86
2022/08/14 05:23:08;;;;;;;4.15;3.83;;;14.40;76.80;;;;;;5133747;27;20279;-86
2022/08/14 05:25:35;;;;;;;3.90;3.50;;;14.60;77.00;;;;;;5133718;27;20192;-87
2022/08/14 05:28:11;;;;;;;3.67;3.38;;;14.70;75.90;;;;;;5127663;27;20200;-86
2022/08/14 05:30:38;;;;;;;4.65;3.80;;;14.80;74.30;;;;;;5124936;27;20198;-86
2022/08/14 05:33:05;;;;;;;3.60;3.30;;;14.90;70.90;;;;;;5117650;27;20666;-87
2022/08/14 05:35:32;;;;;;;3.72;3.42;;;14.90;69.60;;;;;;5120042;28;20197;-86
2022/08/14 05:38:00;;;;;;;3.63;3.33;;;15.00;69.40;;;;;;5133818;27;20211;-87
2022/08/14 05:40:27;;;;;;;4.32;3.08;;;15.10;69.70;;;;;;5145323;27;20199;-86
2022/08/14 05:42:54;;;;;;;4.13;3.60;;;15.20;69.20;;;;;;5140931;27;20199;-87
2022/08/14 05:45:22;;;;;;;4.97;3.42;;;15.20;69.80;;;;;;5132397;27;20211;-87
2022/08/14 05:47:49;;;;;;;3.50;3.20;;;15.30;68.60;;;;;;5132001;27;20195;-86
2022/08/14 05:50:16;;;;;;;3.40;3.10;;;15.40;66.70;;;;;;5130661;27;20638;-86
2022/08/14 05:52:43;;;;;;;3.50;3.20;;;15.50;67.50;;;;;;5133090;27;20191;-86
2022/08/14 05:55:11;;;;;;;3.25;2.95;;;15.60;66.60;;;;;;5131877;27;20199;-87
2022/08/14 05:57:54;;;;;;;3.40;3.10;;;15.80;65.50;;;;;;5132675;27;20662;-86
2022/08/14 06:00:24;;;;;;;4.95;3.17;;;15.90;64.30;;;;;;5133372;27;20223;-86
2022/08/14 06:02:51;;;;;;;3.78;3.40;;;16.00;64.00;;;;;;5131427;27;20200;-87
2022/08/14 06:05:18;;;;;;;3.38;3.08;;;16.00;61.10;;;;;;5137308;27;20656;-86
2022/08/14 06:07:45;;;;;;;3.28;2.97;;;16.10;59.90;;;;;;5135902;27;20291;-86
2022/08/14 06:10:11;;;;;;;3.58;2.92;;;16.30;59.90;;;;;;5137130;27;20693;-86
2022/08/14 06:12:39;;;;;;;4.80;3.13;;;16.50;59.00;;;;;;5135975;27;20199;-87
2022/08/14 06:15:08;;;;;;;4.75;3.72;;;16.50;57.00;;;;;;5145057;27;20190;-86
2022/08/14 06:17:44;;;;;;;3.40;3.10;;;16.60;55.80;;;;;;5138384;27;20202;-86
2022/08/14 06:20:13;;;;;;;3.22;3.00;;;16.70;57.20;;;;;;5127610;27;20227;-86
2022/08/14 06:22:40;;;;;;;3.95;2.67;;;16.80;56.40;;;;;;5137533;27;20207;-86
2022/08/14 06:25:08;;;;;;;4.28;2.92;;;16.90;55.30;;;;;;5136498;27;20199;-86
2022/08/14 06:27:41;;;;;;;4.20;2.92;;;17.00;53.40;;;;;;5136255;27;20195;-87
2022/08/14 06:30:11;;;;;;;3.28;2.80;;;17.10;53.30;;;;;;5137082;27;20207;-87
2022/08/14 06:32:38;;;;;;;4.82;2.90;;;17.30;53.40;;;;;;5138591;27;20205;-86
2022/08/14 06:35:08;;;;;;;3.45;3.15;;;17.30;53.50;;;;;;5137458;27;20202;-86
2022/08/14 06:37:42;;;;;;;3.15;2.67;;;17.40;53.60;;;;;;5137817;27;20210;-86
2022/08/14 06:40:11;;;;;;;3.33;3.03;;;17.50;52.10;;;;;;5125649;27;20221;-86
2022/08/14 06:42:38;;;;;;;3.45;3.15;;;17.60;51.00;;;;;;5138781;27;20210;-86
2022/08/14 06:45:06;;;;;;;4.03;3.50;;;17.70;50.10;;;;;;5146659;27;20253;-86
2022/08/14 06:47:34;;;;;;;4.00;3.28;;;17.90;48.50;;;;;;5136656;27;20669;-86
2022/08/14 06:50:01;;;;;;;4.00;3.08;;;18.00;48.50;;;;;;5135921;27;20207;-86
2022/08/14 06:52:29;;;;;;;3.08;2.83;;;18.20;49.20;;;;;;5136446;27;20195;-86
2022/08/14 06:54:56;;;;;;;4.88;3.33;;;18.30;46.20;;;;;;5125114;27;20662;-87
2022/08/14 06:57:24;;;;;;;3.33;3.03;;;18.50;45.90;;;;;;5128080;27;20188;-86
2022/08/14 06:59:51;;;;;;;3.00;2.78;;;18.60;44.30;;;;;;5115842;28;20212;-87
2022/08/14 07:07:53;;;;;;;6.18;3.10;;;19.00;40.70;;;;;;5116158;28;20211;-87
2022/08/14 07:10:21;;;;;;;5.47;3.10;;;19.30;40.20;;;;;;5116701;28;20210;-86
2022/08/14 07:12:48;;;;;;;5.13;3.00;;;19.50;38.60;;;;;;5118372;27;20204;-87
2022/08/14 07:15:15;;;;;;;3.47;2.70;;;19.60;37.10;;;;;;5117823;27;20192;-86
2022/08/14 07:17:46;;;;;;;3.25;2.80;;;19.70;37.60;;;;;;5119387;27;20204;-87
2022/08/14 07:20:16;;;;;;;2.70;2.50;;;19.90;36.10;;;;;;5125014;27;20314;-86
2022/08/14 07:22:44;;;;;;;4.28;2.70;;;20.00;35.90;;;;;;5131593;27;20206;-87
2022/08/14 07:25:12;;;;;;;3.13;2.75;;;20.30;32.30;;;;;;5124036;27;20312;-86
2022/08/14 07:27:39;;;;;;;4.32;2.60;;;20.50;33.50;;;;;;5121133;27;20200;-87
2022/08/14 07:30:16;;;;;;;4.05;3.00;;;20.50;32.50;;;;;;5136982;27;20207;-86
2022/08/14 07:32:43;;;;;;;2.65;2.28;;;20.70;32.60;;;;;;5148893;27;20198;-86
2022/08/14 07:35:11;;;;;;;3.05;2.60;;;20.70;32.60;;;;;;5128518;27;20202;-87
2022/08/14 07:37:48;;;;;;;3.38;3.08;;;20.80;32.20;;;;;;5149428;27;20275;-84
2022/08/14 07:40:16;;;;;;;3.08;2.65;;;21.00;32.90;;;;;;5147108;27;20240;-84
2022/08/14 07:42:46;;;;;;;3.47;2.55;;;21.20;29.90;;;;;;5152527;27;20693;-84
2022/08/14 07:45:13;;;;;;;3.15;2.72;;;21.40;28.50;;;;;;5140501;27;20852;-84
2022/08/14 07:47:46;;;;;;;2.45;2.28;;;21.50;28.50;;;;;;5142483;27;20191;-84
2022/08/14 07:50:14;;;;;;;2.65;2.45;;;21.70;27.50;;;;;;5136908;27;20214;-84
2022/08/14 07:52:48;;;;;;;2.83;2.63;;;21.80;26.70;;;;;;5133969;27;20200;-84
2022/08/14 07:55:18;;;;;;;3.70;2.50;;;21.90;26.40;;;;;;5131047;27;20204;-84
2022/08/14 07:57:47;;;;;;;3.30;2.80;;;22.00;25.50;;;;;;5137726;27;20195;-84
2022/08/14 08:00:16;;;;;;;2.78;2.58;;;22.20;24.30;;;;;;5137946;27;20210;-84
2022/08/14 08:02:49;;;;;;;2.95;2.72;;;22.40;23.00;;;;;;5133344;27;20214;-84
2022/08/14 08:05:37;;;;;;;2.97;2.50;;;22.50;22.30;;;;;;5136748;27;20192;-84
2022/08/14 08:08:05;;;;;;;2.47;2.28;;;22.70;21.80;;;;;;5135901;27;20195;-84
2022/08/14 08:10:35;;;;;;;2.95;2.63;;;22.80;20.10;;;;;;5136543;27;20226;-84
2022/08/14 08:13:04;;;;;;;2.88;2.55;;;22.90;20.00;;;;;;5133947;27;20236;-84
2022/08/14 08:15:35;;;;;;;2.90;2.40;;;22.90;21.20;;;;;;5134084;27;20203;-84
2022/08/14 08:18:03;;;;;;;3.13;2.75;;;23.00;20.50;;;;;;5125879;27;20235;-84
2022/08/14 08:20:36;;;;;;;3.90;2.80;;;23.00;21.30;;;;;;5139794;27;20250;-82
2022/08/14 08:23:05;;;;;;;2.92;2.58;;;23.10;21.30;;;;;;5120272;27;20195;-85
2022/08/14 08:25:36;;;;;;;3.55;2.55;;;23.30;19.80;;;;;;5135881;27;20195;-85
2022/08/14 08:28:12;;;;;;;2.70;2.50;;;23.50;19.40;;;;;;5126078;27;20203;-85
2022/08/14 08:30:41;;;;;;;2.67;2.47;;;23.60;18.80;;;;;;5134714;27;20665;-85
2022/08/14 08:33:10;;;;;;;2.90;2.65;;;23.70;19.30;;;;;;5134149;27;20198;-85
2022/08/14 08:35:38;;;;;;;2.70;2.50;;;23.80;18.90;;;;;;5146035;27;20195;-85
2022/08/14 08:38:07;;;;;;;2.72;2.45;;;23.90;19.60;;;;;;5155958;27;20251;-86
2022/08/14 08:40:38;;;;;;;5.45;2.63;;;24.00;19.00;;;;;;5132362;27;20238;-86
2022/08/14 08:43:07;;;;;;;4.45;2.80;;;24.10;18.90;;;;;;5138037;27;20225;-84
2022/08/14 08:45:36;;;;;;;5.65;2.78;;;24.20;17.90;;;;;;5134475;27;20610;-84
2022/08/14 08:48:04;;;;;;;2.88;2.67;;;24.30;17.60;;;;;;5141691;27;20205;-84
2022/08/14 08:50:33;;;;;;;3.10;2.90;;;24.50;17.40;;;;;;5135086;27;20196;-84
2022/08/14 08:53:01;;;;;;;3.30;2.58;;;24.50;17.30;;;;;;5136800;27;20202;-84
2022/08/14 08:55:29;;;;;;;4.00;2.67;;;24.40;16.90;;;;;;5138565;27;20194;-84
2022/08/14 08:57:59;;;;;;;3.25;2.95;;;24.40;17.20;;;;;;5147835;27;20591;-84
2022/08/14 09:00:32;;;;;;;2.70;2.50;;;24.60;17.30;;;;;;5136826;27;20219;-84
2022/08/14 09:03:03;;;;;;;2.88;2.67;;;24.70;17.60;;;;;;5137503;27;20210;-84
2022/08/14 09:05:31;;;;;;;3.00;2.70;;;24.90;16.20;;;;;;5135160;27;20569;-84
2022/08/14 09:08:12;;;;;;;3.53;2.40;;;25.10;16.20;;;;;;5135459;27;20191;-85
2022/08/14 09:10:39;;;;;;;3.22;2.90;;;25.60;14.40;;;;;;5131793;27;20199;-80
2022/08/14 09:13:12;;;;;;;3.15;2.85;;;26.10;14.70;;;;;;5138992;27;20202;-83
2022/08/14 09:15:41;;;;;;;4.35;2.75;;;27.80;12.70;;;;;;5141000;27;20191;-83
2022/08/14 09:18:09;;;;;;;3.15;2.85;;;30.00;9.40;;;;;;5134891;27;20187;-83
2022/08/14 09:20:38;;;;;;;3.15;2.90;;;31.10;7.50;;;;;;5132746;27;20251;-85
2022/08/14 09:23:06;;;;;;;3.03;2.83;;;32.70;5.20;;;;;;5129181;27;20190;-86
2022/08/14 09:25:33;;;;;;;3.30;3.10;;;33.40;4.20;;;;;;5128073;27;20205;-84
2022/08/14 09:28:00;;;;;;;3.10;2.90;;;34.00;2.80;;;;;;5134188;27;20281;-83
2022/08/14 09:30:28;;;;;;;3.35;3.10;;;34.00;2.70;;;;;;5133850;27;20221;-84
2022/08/14 09:33:33;;;;;;;4.50;3.20;;;34.60;1.40;;;;;;5133574;27;20203;-83
2022/08/14 09:36:21;;;;;;;3.42;3.22;;;34.60;2.40;;;;;;5062663;28;20213;-85
2022/08/14 09:38:58;;;;;;;3.42;3.20;;;35.50;1.40;;;;;;5085338;28;20729;-85
2022/08/14 09:41:38;;;;;;;3.60;3.30;;;36.00;1.00;;;;;;5089690;28;20249;-85
2022/08/14 09:44:27;;;;;;;4.25;3.67;;;36.00;1.00;;;;;;5083378;28;20220;-85
2022/08/14 09:47:13;;;;;;;3.70;3.40;;;35.40;1.00;;;;;;5075038;28;20585;-85
2022/08/14 09:49:41;;;;;;;3.70;3.47;;;35.60;1.00;;;;;;5078395;28;20252;-85
2022/08/14 09:52:10;;;;;;;3.72;3.53;;;36.00;1.00;;;;;;5075541;28;20254;-85
2022/08/14 09:54:42;;;;;;;3.60;3.40;;;36.80;1.00;;;;;;5076149;28;20227;-85
2022/08/14 09:57:10;;;;;;;3.50;3.30;;;36.10;1.00;;;;;;5071706;28;20715;-85
2022/08/14 09:59:42;;;;;;;3.90;3.60;;;36.50;1.00;;;;;;5072681;28;20262;-85
2022/08/14 10:02:26;;;;;;;3.70;3.40;;;36.10;1.00;;;;;;5070805;28;20699;-86
2022/08/14 10:05:00;;;;;;;4.00;3.70;;;36.10;1.00;;;;;;5075848;28;20196;-85
2022/08/14 10:07:35;;;;;;;6.95;4.10;;;35.30;1.30;;;;;;5082481;28;20201;-85
2022/08/14 10:10:04;;;;;;;4.20;3.90;;;36.00;1.00;;;;;;5080409;28;20208;-85
2022/08/14 10:12:49;;;;;;;4.28;3.97;;;36.10;1.00;;;;;;5100880;27;20203;-85
2022/08/14 10:15:20;;;;;;;4.30;3.90;;;36.50;1.00;;;;;;5139206;27;20278;-85
2022/08/14 10:17:50;;;;;;;4.00;3.70;;;35.70;1.00;;;;;;5143553;27;20195;-85
2022/08/14 10:20:21;;;;;;;3.90;3.70;;;34.80;1.00;;;;;;5148689;27;20250;-85
2022/08/14 10:22:52;;;;;;;4.20;3.92;;;35.90;1.00;;;;;;5153683;27;20198;-85
2022/08/14 10:25:19;;;;;;;3.70;3.50;;;35.00;1.00;;;;;;5142412;27;20202;-85
2022/08/14 10:27:56;;;;;;;4.18;3.78;;;34.70;1.00;;;;;;5140535;27;20196;-86
2022/08/14 10:30:23;;;;;;;4.15;3.75;;;34.60;1.00;;;;;;5135845;27;20199;-85
2022/08/14 10:32:54;;;;;;;3.95;3.63;;;35.20;1.00;;;;;;5142517;27;20650;-85
2022/08/14 10:35:22;;;;;;;3.95;3.67;;;34.90;1.00;;;;;;5125753;27;20586;-85
2022/08/14 10:38:04;;;;;;;3.83;3.53;;;34.20;1.00;;;;;;5138530;27;20193;-85
2022/08/14 10:40:32;;;;;;;3.85;3.55;;;34.80;1.00;;;;;;5137359;27;20210;-85
2022/08/14 10:42:58;;;;;;;3.80;3.50;;;35.70;1.00;;;;;;5136704;27;20212;-85
2022/08/14 10:45:31;;;;;;;3.30;3.10;;;35.90;1.00;;;;;;5135148;27;20207;-85
2022/08/14 10:48:01;;;;;;;3.75;3.55;;;35.60;1.00;;;;;;5136770;27;20203;-85
2022/08/14 10:50:31;;;;;;;4.35;3.60;;;34.90;1.00;;;;;;5133523;27;20605;-85
2022/08/14 10:53:02;;;;;;;4.60;3.42;;;34.80;1.70;;;;;;5137224;27;20194;-85
2022/08/14 10:55:38;;;;;;;3.85;3.55;;;35.30;1.00;;;;;;5135761;27;20190;-85
2022/08/14 10:58:09;;;;;;;6.75;3.22;;;35.30;1.00;;;;;;5136121;27;20650;-85
2022/08/14 11:00:38;;;;;;;3.50;3.20;;;35.50;1.00;;;;;;5136429;27;20214;-85
2022/08/14 11:03:08;;;;;;;3.60;3.30;;;34.30;1.00;;;;;;5135800;27;20207;-85
2022/08/14 11:05:41;;;;;;;3.15;2.95;;;33.20;1.00;;;;;;5136233;27;20237;-85
2022/08/14 11:08:09;;;;;;;4.05;3.65;;;33.10;2.60;;;;;;5155230;27;20281;-85
2022/08/14 11:10:42;;;;;;;4.13;3.20;;;33.50;1.70;;;;;;5139377;27;20566;-85
2022/08/14 11:13:10;;;;;;;3.95;2.78;;;31.80;2.90;;;;;;5143040;27;20198;-84
2022/08/14 11:15:40;;;;;;;3.28;2.97;;;31.60;3.00;;;;;;5126945;27;20203;-84
2022/08/14 11:18:11;;;;;;;3.22;2.92;;;31.40;4.00;;;;;;5135832;27;20255;-84
2022/08/14 11:20:44;;;;;;;5.50;2.85;;;31.50;3.30;;;;;;5134742;27;20224;-84
2022/08/14 11:23:12;;;;;;;3.13;2.92;;;31.40;4.50;;;;;;5136734;27;20653;-84
2022/08/14 11:25:45;;;;;;;4.18;3.10;;;31.30;4.00;;;;;;5137319;27;20220;-84
2022/08/14 11:28:13;;;;;;;3.00;2.80;;;31.00;4.90;;;;;;5142707;27;20255;-83
2022/08/14 11:30:48;;;;;;;3.13;2.83;;;31.00;4.80;;;;;;5145364;27;20271;-83
2022/08/14 11:33:23;;;;;;;3.35;3.00;;;30.90;4.60;;;;;;5138304;27;20535;-83
2022/08/14 11:35:50;;;;;;;3.00;2.70;;;30.80;7.10;;;;;;5136330;27;20237;-82
2022/08/14 11:38:18;;;;;;;2.80;2.60;;;30.60;3.20;;;;;;5143898;27;20265;-83
2022/08/14 11:40:46;;;;;;;3.63;2.80;;;29.70;4.90;;;;;;5145845;27;20225;-83
2022/08/14 11:43:17;;;;;;;4.65;2.97;;;29.80;6.10;;;;;;5125802;27;20206;-85
2022/08/14 11:45:48;;;;;;;3.55;2.60;;;30.00;7.00;;;;;;5139475;27;20637;-83
2022/08/14 11:48:18;;;;;;;3.40;2.45;;;29.90;3.90;;;;;;5122284;27;20196;-83
2022/08/14 11:50:46;;;;;;;3.22;2.70;;;29.80;6.20;;;;;;5122092;27;20202;-84
2022/08/14 11:53:21;;;;;;;2.90;2.70;;;29.90;4.70;;;;;;5132014;27;20222;-81
2022/08/14 11:55:55;;;;;;;2.80;2.60;;;29.60;4.70;;;;;;5128880;27;20194;-84
2022/08/14 11:58:26;;;;;;;2.80;2.60;;;29.70;5.00;;;;;;5128007;27;20202;-83
2022/08/14 12:00:56;;;;;;;3.50;2.40;;;29.80;5.80;;;;;;5128714;27;20626;-84
2022/08/14 12:03:35;;;;;;;3.00;1.98;;;30.00;5.20;;;;;;5135995;27;20207;-84
2022/08/14 12:06:05;;;;;;;4.43;2.20;;;29.90;2.80;;;;;;5130303;27;20208;-84
2022/08/14 12:08:35;;;;;;;3.47;2.40;;;29.90;3.40;;;;;;5138654;27;20198;-84
2022/08/14 12:11:03;;;;;;;2.85;2.55;;;29.90;4.30;;;;;;5122370;27;20208;-85
2022/08/14 12:13:32;;;;;;;2.83;2.63;;;30.00;4.70;;;;;;5135931;27;20210;-84
2022/08/14 12:16:12;;;;;;;3.35;2.45;;;30.20;4.30;;;;;;5128716;27;20281;-84
2022/08/14 12:18:42;;;;;;;3.78;2.58;;;30.20;5.20;;;;;;5127147;27;20198;-83
2022/08/14 12:21:13;;;;;;;3.30;2.72;;;29.90;2.90;;;;;;5141978;27;20212;-83
2022/08/14 12:23:40;;;;;;;2.65;2.45;;;30.00;3.80;;;;;;5129196;27;20196;-83
2022/08/14 12:26:09;;;;;;;2.70;2.50;;;30.10;4.40;;;;;;5135194;27;20199;-83
2022/08/14 12:28:37;;;;;;;3.47;3.28;;;29.90;4.60;;;;;;5134697;27;20191;-83
2022/08/14 12:31:16;;;;;;;2.80;2.60;;;30.10;4.70;;;;;;5134340;27;20242;-83
2022/08/14 12:33:56;;;;;;;3.90;2.92;;;29.90;4.10;;;;;;5153604;27;20210;-83
2022/08/14 12:36:29;;;;;;;3.28;2.60;;;29.90;4.50;;;;;;5155522;27;20198;-83
2022/08/14 12:38:57;;;;;;;2.83;2.63;;;29.90;4.50;;;;;;5155580;27;20613;-83
2022/08/14 12:41:25;;;;;;;2.83;2.63;;;29.90;3.90;;;;;;5157830;27;20222;-84
2022/08/14 12:43:55;;;;;;;2.88;2.60;;;29.90;3.90;;;;;;5141231;27;20222;-84
2022/08/14 12:46:29;;;;;;;2.80;2.60;;;29.90;3.90;;;;;;5132701;27;20578;-84
2022/08/14 12:48:58;;;;;;;3.90;2.47;;;30.00;2.50;;;;;;5128553;27;20202;-84
2022/08/14 12:51:28;;;;;;;2.97;2.58;;;29.80;3.20;;;;;;5153059;27;20197;-84
2022/08/14 12:53:56;;;;;;;2.50;2.35;;;29.70;3.80;;;;;;5136224;27;20201;-84
2022/08/14 12:56:25;;;;;;;2.45;2.25;;;29.80;4.10;;;;;;5156081;27;20254;-84
2022/08/14 12:58:58;;;;;;;2.08;1.98;;;29.50;2.30;;;;;;5153447;27;20190;-84
2022/08/14 13:01:27;;;;;;;2.35;2.15;;;29.10;3.10;;;;;;5129699;27;20229;-84
2022/08/14 13:06:53;;;;;;;2.35;1.98;;;29.20;3.20;;;;;;5141336;27;21015;-82
2022/08/14 13:09:26;;;;;;;2.08;1.98;;;29.00;2.90;;;;;;5133540;27;20213;-85
2022/08/14 13:11:53;;;;;;;2.13;2.03;;;29.30;5.30;;;;;;5124555;28;20293;-85
2022/08/14 13:14:24;;;;;;;2.90;2.20;;;29.40;2.40;;;;;;5126742;28;20195;-85
2022/08/14 13:16:53;;;;;;;2.45;2.25;;;29.60;3.30;;;;;;5127654;27;20202;-85
2022/08/14 13:19:21;;;;;;;2.55;2.35;;;29.70;2.30;;;;;;5123045;27;20256;-85
2022/08/14 13:21:52;;;;;;;3.25;2.60;;;29.70;3.40;;;;;;5132155;27;20210;-85
2022/08/14 13:24:21;;;;;;;2.70;2.50;;;29.90;3.70;;;;;;5134903;27;20207;-85
2022/08/14 13:26:50;;;;;;;2.70;2.50;;;30.00;2.80;;;;;;5137339;27;20226;-85